Time;durP1;ratioP1;P1;durP2;ratioP2;P2;SDS_P1;SDS_P2;PMS_P1;PMS_P2;Temp;Humidity;BMP_temperature;BMP_pressure;BME280_temperature;BME280_humidity;BME280_pressure;Samples;Min_cycle;Max_cycle;Signal;HPM_P1;HPM_P2
2021/01/13 00:02:22;;;;;;;14.98;8.68;;;;;;;3.20;100.00;95950.06;5007738;28;20128;-69
2021/01/13 00:04:48;;;;;;;14.07;7.68;;;;;;;3.43;100.00;95986.63;5026061;28;20033;-69
2021/01/13 00:07:14;;;;;;;10.15;5.70;;;;;;;3.40;99.78;95992.03;5007654;28;20519;-68
2021/01/13 00:09:43;;;;;;;36.90;14.63;;;;;;;3.25;99.88;95982.63;5026414;28;20045;-67
2021/01/13 00:12:10;;;;;;;51.53;24.70;;;;;;;2.86;99.47;95913.16;5025916;28;20038;-69
2021/01/13 00:14:37;;;;;;;30.67;16.25;;;;;;;2.86;100.00;95923.34;5008146;28;20057;-72
2021/01/13 00:17:03;;;;;;;27.55;14.82;;;;;;;3.31;100.00;95986.72;5025686;28;20037;-69
2021/01/13 00:19:29;;;;;;;16.48;8.68;;;;;;;3.30;99.12;95971.44;5025806;28;20041;-69
2021/01/13 00:21:55;;;;;;;16.92;8.32;;;;;;;3.35;99.84;95987.59;5025515;28;20039;-69
2021/01/13 00:24:22;;;;;;;20.90;11.95;;;;;;;2.54;100.00;95862.31;5026107;28;20047;-70
2021/01/13 00:26:48;;;;;;;18.00;10.00;;;;;;;3.37;100.00;96003.69;5023926;28;20531;-69
2021/01/13 00:29:18;;;;;;;12.73;6.72;;;;;;;3.32;100.00;95988.28;5007955;28;20072;-68
2021/01/13 00:31:45;;;;;;;13.52;7.03;;;;;;;3.44;97.76;96010.13;5007203;28;20037;-67
2021/01/13 00:34:14;;;;;;;9.88;6.00;;;;;;;2.63;98.09;95853.94;5023862;28;20040;-68
2021/01/13 00:36:40;;;;;;;13.75;6.93;;;;;;;3.38;98.21;95995.13;5025341;28;20073;-68
2021/01/13 00:39:06;;;;;;;9.27;5.35;;;;;;;2.88;98.12;95889.00;5025679;28;20037;-69
2021/01/13 00:41:33;;;;;;;5.35;3.35;;;;;;;2.26;99.55;95844.31;5023419;28;20041;-69
2021/01/13 00:43:58;;;;;;;6.45;3.03;;;;;;;2.87;99.70;95950.31;5025532;28;20045;-68
2021/01/13 00:46:24;;;;;;;10.90;5.13;;;;;;;3.25;99.25;95988.13;5024778;28;20455;-68
2021/01/13 00:48:49;;;;;;;7.68;3.55;;;;;;;3.27;99.07;95988.56;5025340;28;20144;-68
2021/01/13 00:51:15;;;;;;;10.15;4.28;;;;;;;2.48;99.50;95869.13;5023437;28;20071;-71
2021/01/13 00:53:41;;;;;;;5.60;2.60;;;;;;;3.27;99.55;95976.81;5025460;28;20072;-72
2021/01/13 00:56:06;;;;;;;10.48;4.25;;;;;;;3.21;99.23;95981.72;5025279;28;20116;-70
2021/01/13 00:58:33;;;;;;;7.88;4.22;;;;;;;2.68;99.29;95917.38;5007227;28;20069;-72
2021/01/13 01:00:59;;;;;;;5.55;2.90;;;;;;;3.22;98.46;95986.06;5007084;28;20032;-69
2021/01/13 01:03:25;;;;;;;4.90;2.55;;;;;;;2.71;99.37;95916.66;5007148;28;20061;-68
2021/01/13 01:05:50;;;;;;;7.32;2.80;;;;;;;2.21;99.43;95858.19;5025269;28;20037;-69
2021/01/13 01:08:17;;;;;;;6.03;2.90;;;;;;;3.06;99.74;95985.22;5025397;28;20060;-69
2021/01/13 01:10:50;;;;;;;7.93;3.67;;;;;;;3.01;100.00;95985.47;5006322;28;20037;-69
2021/01/13 01:13:16;;;;;;;6.93;3.97;;;;;;;2.94;100.00;95952.47;5025049;28;20057;-70
2021/01/13 01:15:41;;;;;;;12.05;6.38;;;;;;;3.11;100.00;95980.28;5006376;28;20112;-68
2021/01/13 01:18:07;;;;;;;14.23;7.22;;;;;;;2.60;100.00;95906.56;5024965;28;20061;-68
2021/01/13 01:20:32;;;;;;;18.25;8.18;;;;;;;3.17;100.00;95969.91;5006380;28;20087;-69
2021/01/13 01:23:00;;;;;;;18.80;7.85;;;;;;;3.06;100.00;95974.28;5024852;28;20040;-68
2021/01/13 01:25:27;;;;;;;20.35;8.70;;;;;;;2.64;100.00;95954.72;5024387;28;20611;-69
2021/01/13 01:27:55;;;;;;;18.50;9.07;;;;;;;2.99;100.00;95988.56;5024779;28;20138;-70
2021/01/13 01:30:22;;;;;;;30.23;11.88;;;;;;;2.32;100.00;95859.31;5023952;28;20347;-69
2021/01/13 01:32:47;;;;;;;28.40;10.15;;;;;;;3.10;100.00;95975.16;5024534;28;20037;-70
2021/01/13 01:35:13;;;;;;;20.02;9.07;;;;;;;3.03;100.00;95973.03;5006193;28;20586;-69
2021/01/13 01:37:39;;;;;;;18.73;8.75;;;;;;;3.04;100.00;95979.31;5024527;28;20029;-69
2021/01/13 01:40:10;;;;;;;16.10;8.27;;;;;;;2.62;100.00;95909.75;5024451;28;20385;-69
2021/01/13 01:42:36;;;;;;;25.52;8.73;;;;;;;2.55;100.00;95917.72;5024564;28;20084;-70
2021/01/13 01:45:03;;;;;;;24.45;9.25;;;;;;;2.59;100.00;95911.22;5006525;28;20036;-70
2021/01/13 01:47:52;;;;;;;23.15;8.38;;;;;;;2.88;100.00;95948.38;5024233;28;20029;-70
2021/01/13 01:50:21;;;;;;;26.65;7.70;;;;;;;2.85;100.00;95943.59;5017619;28;20419;-70
2021/01/13 01:52:56;;;;;;;30.52;10.10;;;;;;;2.88;100.00;95948.38;5024711;28;20532;-70
2021/01/13 01:55:28;;;;;;;27.73;9.85;;;;;;;2.98;100.00;95945.16;5005905;28;20077;-71
2021/01/13 01:57:58;;;;;;;28.35;9.63;;;;;;;3.05;100.00;95948.09;5024519;28;20053;-71
2021/01/13 02:00:30;;;;;;;15.20;6.38;;;;;;;2.32;100.00;95848.38;5006083;28;20030;-71
2021/01/13 02:03:03;;;;;;;9.23;5.00;;;;;;;2.50;100.00;95861.38;5006585;28;20045;-69
2021/01/13 02:05:30;;;;;;;11.02;3.67;;;;;;;3.21;100.00;95940.69;5006057;28;20061;-70
2021/01/13 02:08:01;;;;;;;8.48;4.07;;;;;;;3.23;100.00;95932.94;5024327;28;20041;-72
2021/01/13 02:10:26;;;;;;;7.75;3.67;;;;;;;3.19;100.00;95937.53;5024146;28;20072;-72
2021/01/13 02:12:52;;;;;;;12.23;5.10;;;;;;;2.91;100.00;95917.59;5024227;28;20069;-71
2021/01/13 02:15:18;;;;;;;14.52;5.80;;;;;;;3.16;98.64;95918.28;5005784;28;20040;-71
2021/01/13 02:17:53;;;;;;;13.55;6.07;;;;;;;3.24;99.87;95929.03;5024233;28;20037;-72
2021/01/13 02:20:24;;;;;;;17.35;7.05;;;;;;;2.48;100.00;95851.97;5024010;28;20033;-72
2021/01/13 02:22:59;;;;;;;17.85;8.80;;;;;;;3.16;100.00;95932.75;5024405;28;20043;-72
2021/01/13 02:25:59;;;;;;;19.52;8.98;;;;;;;3.27;100.00;95935.78;5022332;28;20041;-71
2021/01/13 02:28:27;;;;;;;13.63;6.70;;;;;;;3.08;100.00;95914.56;5024480;28;20041;-72
2021/01/13 02:31:04;;;;;;;12.52;5.78;;;;;;;3.15;100.00;95936.63;5024007;28;20336;-72
2021/01/13 02:33:36;;;;;;;24.75;9.18;;;;;;;3.12;100.00;95934.59;5024430;28;20045;-70
2021/01/13 02:36:33;;;;;;;9.13;4.45;;;;;;;2.31;100.00;95814.00;5005824;28;20160;-72
2021/01/13 02:39:03;;;;;;;9.43;4.43;;;;;;;3.08;100.00;95925.50;5005967;28;20480;-69
2021/01/13 02:41:31;;;;;;;11.68;5.55;;;;;;;3.04;100.00;95946.47;5024823;28;20033;-70
2021/01/13 02:43:58;;;;;;;20.98;8.52;;;;;;;2.90;100.00;95907.81;5009644;28;20474;-69
2021/01/13 02:46:45;;;;;;;32.35;14.45;;;;;;;2.91;100.00;95934.81;5009331;28;20523;-71
2021/01/13 02:49:12;;;;;;;25.10;10.68;;;;;;;2.48;100.00;95892.94;5027838;28;20041;-71
2021/01/13 02:51:40;;;;;;;25.15;12.25;;;;;;;2.38;100.00;95844.25;5027291;28;20318;-69
2021/01/13 02:54:29;;;;;;;33.35;14.77;;;;;;;2.78;100.00;95930.50;5009471;28;20044;-71
2021/01/13 02:57:20;;;;;;;26.08;11.40;;;;;;;2.68;100.00;95933.75;5009082;28;20121;-71
2021/01/13 02:59:49;;;;;;;24.90;10.45;;;;;;;2.52;100.00;95932.09;5027358;28;20045;-70
2021/01/13 03:02:16;;;;;;;13.98;8.40;;;;;;;2.44;100.00;95916.63;5027023;28;20409;-71
2021/01/13 03:04:42;;;;;;;14.32;7.03;;;;;;;2.56;100.00;95938.47;5027479;28;20033;-68
2021/01/13 03:07:16;;;;;;;10.30;5.38;;;;;;;2.41;100.00;95906.38;5027504;28;20037;-69
2021/01/13 03:09:47;;;;;;;14.27;7.28;;;;;;;2.68;100.00;95941.16;5023008;28;20517;-69
2021/01/13 03:12:19;;;;;;;11.98;5.55;;;;;;;2.48;100.00;95933.94;5007073;28;20041;-68
2021/01/13 03:14:52;;;;;;;25.45;12.07;;;;;;;2.26;100.00;95937.19;5018710;28;20069;-70
2021/01/13 03:17:29;;;;;;;13.68;8.40;;;;;;;2.31;100.00;95939.69;5026846;28;20033;-68
2021/01/13 03:20:14;;;;;;;14.80;6.35;;;;;;;2.14;100.00;95950.84;5027236;28;20029;-68
2021/01/13 03:22:50;;;;;;;9.77;4.57;;;;;;;1.01;100.00;95794.41;5026958;28;20451;-69
2021/01/13 03:25:19;;;;;;;11.32;6.15;;;;;;;1.85;100.00;95945.63;5026784;28;20116;-68
2021/01/13 03:27:45;;;;;;;12.57;5.38;;;;;;;1.97;100.00;95951.88;5008822;28;20033;-69
2021/01/13 03:30:12;;;;;;;13.50;5.60;;;;;;;1.89;100.00;95958.25;5026232;28;20059;-68
2021/01/13 03:33:02;;;;;;;16.92;6.85;;;;;;;1.88;100.00;95966.78;5027199;28;20450;-71
2021/01/13 03:35:38;;;;;;;8.30;3.90;;;;;;;1.84;100.00;95968.59;5008368;28;20037;-71
2021/01/13 03:38:19;;;;;;;8.80;4.45;;;;;;;1.85;100.00;95970.97;4990166;28;20050;-70
2021/01/13 03:40:48;;;;;;;10.77;4.82;;;;;;;1.73;100.00;95956.53;4988530;28;20568;-71
2021/01/13 03:43:19;;;;;;;22.65;9.02;;;;;;;2.06;100.00;95982.59;5006790;28;20172;-71
2021/01/13 03:45:53;;;;;;;61.58;22.10;;;;;;;1.43;100.00;95929.47;5006809;28;20113;-70
2021/01/13 03:48:42;;;;;;;61.60;21.65;;;;;;;1.54;100.00;95941.53;4989012;28;20425;-71
2021/01/13 03:51:53;;;;;;;70.72;25.17;;;;;;;2.13;99.47;95987.47;4988691;28;20508;-71
2021/01/13 03:54:24;;;;;;;308.52;100.35;;;;;;;2.17;100.00;95982.91;5005968;28;20048;-70
2021/01/13 03:56:59;;;;;;;126.47;42.75;;;;;;;2.24;99.19;96005.81;5006429;28;20496;-72
2021/01/13 03:59:47;;;;;;;132.00;40.65;;;;;;;2.29;98.75;96005.56;5006611;28;20050;-69
2021/01/13 04:02:23;;;;;;;95.13;29.38;;;;;;;1.95;98.61;95948.69;4988297;28;20071;-71
2021/01/13 04:05:18;;;;;;;20.90;8.07;;;;;;;2.38;99.17;96011.72;4988606;28;20124;-72
2021/01/13 04:07:45;;;;;;;16.48;6.10;;;;;;;2.38;98.86;96010.91;4988514;28;20033;-70
2021/01/13 04:10:14;;;;;;;24.33;11.43;;;;;;;2.47;99.88;96008.84;5006103;28;20069;-71
2021/01/13 04:12:51;;;;;;;44.40;19.50;;;;;;;2.54;100.00;96009.06;5006123;28;20060;-72
2021/01/13 04:15:20;;;;;;;17.10;9.48;;;;;;;1.94;99.74;95924.47;5017687;28;20041;-71
2021/01/13 04:17:47;;;;;;;9.43;6.03;;;;;;;2.47;98.82;96000.66;5008442;28;20030;-71
2021/01/13 04:20:13;;;;;;;11.35;6.10;;;;;;;2.39;97.04;96004.28;5025983;28;20029;-72
2021/01/13 04:22:38;;;;;;;13.38;6.78;;;;;;;2.16;97.93;96057.81;5026019;28;20065;-71
2021/01/13 04:25:05;;;;;;;16.90;7.53;;;;;;;2.40;96.80;96000.44;5025799;28;20061;-70
2021/01/13 04:27:31;;;;;;;20.63;9.63;;;;;;;2.08;97.71;95958.47;5025604;28;20419;-71
2021/01/13 04:29:56;;;;;;;29.05;17.17;;;;;;;2.31;98.27;95995.09;5025888;28;20039;-70
2021/01/13 04:32:22;;;;;;;21.08;9.77;;;;;;;2.05;99.34;95961.09;5025426;28;20036;-71
2021/01/13 04:34:48;;;;;;;34.42;16.25;;;;;;;2.36;100.00;96014.00;5006896;28;20034;-72
2021/01/13 04:37:14;;;;;;;30.35;14.23;;;;;;;2.37;99.40;96017.53;5007319;28;20030;-68
2021/01/13 04:39:40;;;;;;;17.85;8.25;;;;;;;1.53;98.60;95931.72;5007448;28;20072;-69
2021/01/13 04:42:09;;;;;;;16.13;8.45;;;;;;;1.77;100.00;96012.81;5025512;28;20576;-69
2021/01/13 04:45:07;;;;;;;18.15;8.50;;;;;;;1.88;100.00;96018.66;5025607;28;20408;-69
2021/01/13 04:47:51;;;;;;;13.07;6.80;;;;;;;1.77;100.00;96017.50;5007334;28;20534;-69
2021/01/13 04:50:19;;;;;;;16.00;7.63;;;;;;;1.80;100.00;96025.00;5024799;28;20504;-66
2021/01/13 04:52:47;;;;;;;18.02;9.02;;;;;;;1.61;100.00;95995.53;5007763;28;20660;-67
2021/01/13 04:55:23;;;;;;;24.73;13.65;;;;;;;1.76;100.00;96015.88;5006859;28;20043;-67
2021/01/13 04:58:33;;;;;;;26.52;12.93;;;;;;;1.80;100.00;96011.38;5025275;28;20508;-67
2021/01/13 05:01:11;;;;;;;35.25;18.70;;;;;;;1.74;100.00;96018.19;4978708;28;20128;-67
2021/01/13 05:03:39;;;;;;;29.65;13.60;;;;;;;1.73;100.00;96011.13;5025125;28;20041;-67
2021/01/13 05:06:11;;;;;;;70.55;26.98;;;;;;;1.66;100.00;96022.59;5024056;28;20033;-67
2021/01/13 05:08:40;;;;;;;98.07;35.65;;;;;;;0.99;100.00;95919.38;5025276;28;20040;-66
2021/01/13 05:11:11;;;;;;;62.28;29.83;;;;;;;1.60;100.00;96034.84;5024958;28;20129;-66
2021/01/13 05:13:41;;;;;;;48.78;23.48;;;;;;;0.06;100.00;95792.25;5025374;28;20044;-65
2021/01/13 05:16:14;;;;;;;60.70;27.90;;;;;;;0.89;100.00;95944.31;5006962;28;20060;-67
2021/01/13 05:18:51;;;;;;;57.03;26.25;;;;;;;1.44;100.00;96021.06;5025283;28;20037;-67
2021/01/13 05:21:18;;;;;;;59.15;28.25;;;;;;;1.39;100.00;96006.84;5024365;28;20116;-67
2021/01/13 05:23:47;;;;;;;47.53;24.02;;;;;;;1.47;100.00;96019.59;5006940;28;20500;-66
2021/01/13 05:26:21;;;;;;;40.50;21.13;;;;;;;1.29;100.00;96010.81;5006311;28;20040;-68
2021/01/13 05:29:06;;;;;;;44.03;22.60;;;;;;;1.28;100.00;96017.38;5024828;28;20411;-66
2021/01/13 05:31:36;;;;;;;37.30;18.73;;;;;;;1.31;100.00;96018.66;5024036;28;20049;-67
2021/01/13 05:34:03;;;;;;;42.90;20.30;;;;;;;0.24;100.00;95884.31;5022906;28;20189;-66
2021/01/13 05:36:29;;;;;;;40.75;19.90;;;;;;;1.27;100.00;96032.16;5023941;28;20052;-66
2021/01/13 05:39:04;;;;;;;31.15;16.63;;;;;;;1.32;100.00;96039.31;5024607;28;20025;-66
2021/01/13 05:41:30;;;;;;;26.48;12.70;;;;;;;1.18;100.00;96026.00;5006056;28;20133;-66
2021/01/13 05:43:56;;;;;;;30.42;15.40;;;;;;;0.85;100.00;95989.75;5006545;28;20120;-67
2021/01/13 05:46:22;;;;;;;68.40;29.15;;;;;;;0.94;100.00;96000.53;5023925;28;20057;-68
2021/01/13 05:48:51;;;;;;;32.28;13.73;;;;;;;0.88;100.00;96008.16;5024325;28;20121;-68
2021/01/13 05:51:29;;;;;;;22.70;10.65;;;;;;;1.07;100.00;96060.25;5023765;28;20412;-68
2021/01/13 05:53:56;;;;;;;42.17;10.38;;;;;;;0.98;100.00;96062.25;5024218;28;20032;-67
2021/01/13 05:56:22;;;;;;;28.40;9.48;;;;;;;0.76;100.00;96070.75;5022951;28;20465;-68
2021/01/13 05:59:03;;;;;;;35.00;9.43;;;;;;;0.14;100.00;96020.84;5024232;28;20049;-67
2021/01/13 06:01:53;;;;;;;33.25;10.10;;;;;;;0.98;100.00;96077.81;5023718;28;20431;-67
2021/01/13 06:04:19;;;;;;;23.35;9.65;;;;;;;0.52;100.00;96001.69;5023440;28;20624;-70
2021/01/13 06:07:03;;;;;;;62.10;13.43;;;;;;;1.04;100.00;96076.47;5016513;28;20029;-67
2021/01/13 06:09:36;;;;;;;34.17;13.05;;;;;;;1.10;100.00;96081.41;5023635;28;20037;-67
2021/01/13 06:12:04;;;;;;;46.28;14.95;;;;;;;0.48;100.00;95977.06;5005133;28;20033;-63
2021/01/13 06:14:31;;;;;;;72.63;30.27;;;;;;;0.75;100.00;96041.91;5019882;28;20073;-70
2021/01/13 06:17:04;;;;;;;78.03;34.53;;;;;;;1.27;100.00;96094.88;5022017;28;20073;-69
2021/01/13 06:19:30;;;;;;;216.32;87.88;;;;;;;1.15;100.00;96059.38;5007028;28;20038;-68
2021/01/13 06:22:09;;;;;;;38.15;20.17;;;;;;;1.21;100.00;96093.50;5025319;28;20069;-67
2021/01/13 06:24:35;;;;;;;32.92;18.83;;;;;;;1.24;100.00;96038.28;5026562;28;20034;-65
2021/01/13 06:27:22;;;;;;;36.20;19.48;;;;;;;1.54;100.00;96086.13;5026582;28;20580;-67
2021/01/13 06:30:01;;;;;;;110.97;51.08;;;;;;;-0.34;100.00;95789.22;5005764;28;20049;-67
2021/01/13 06:32:50;;;;;;;151.48;69.68;;;;;;;1.68;100.00;96085.00;5021085;28;20040;-64
2021/01/13 06:35:21;;;;;;;209.13;96.30;;;;;;;1.87;100.00;96098.94;5026651;28;20148;-66
2021/01/13 06:37:48;;;;;;;124.15;63.08;;;;;;;1.90;100.00;96111.94;5007520;28;20037;-66
2021/01/13 06:40:16;;;;;;;140.52;70.15;;;;;;;1.77;100.00;96081.06;5025531;28;20540;-69
2021/01/13 06:42:42;;;;;;;152.93;84.30;;;;;;;2.04;100.00;96109.69;5026261;28;20037;-64
2021/01/13 06:45:10;;;;;;;103.90;50.33;;;;;;;-0.81;100.00;95668.22;5027289;28;20042;-66
2021/01/13 06:47:36;;;;;;;101.53;51.83;;;;;;;1.34;100.00;96032.38;5027163;28;20033;-70
2021/01/13 06:50:02;;;;;;;54.90;29.35;;;;;;;1.43;99.66;95997.66;5026519;28;20041;-69
2021/01/13 06:52:30;;;;;;;59.35;28.38;;;;;;;1.63;100.00;96017.81;5027068;28;20072;-67
2021/01/13 06:55:00;;;;;;;42.15;22.33;;;;;;;0.88;100.00;95904.56;5027534;28;20114;-68
2021/01/13 06:57:32;;;;;;;40.17;23.08;;;;;;;1.56;99.43;95996.53;5019484;28;20064;-69
2021/01/13 07:00:01;;;;;;;64.85;33.33;;;;;;;2.50;98.09;96128.38;5001053;28;20060;-68
2021/01/13 07:02:36;;;;;;;53.17;26.45;;;;;;;2.22;98.12;96075.56;5008779;28;20128;-67
2021/01/13 07:05:02;;;;;;;51.65;24.90;;;;;;;0.86;98.35;95906.84;5026949;28;20049;-67
2021/01/13 07:07:30;;;;;;;48.88;22.38;;;;;;;1.84;99.47;96015.00;5008541;28;20030;-66
2021/01/13 07:09:55;;;;;;;32.03;15.32;;;;;;;1.20;97.87;95892.81;5026352;28;20056;-65
2021/01/13 07:12:24;;;;;;;18.45;10.75;;;;;;;3.01;97.14;96116.75;5026693;28;20516;-67
2021/01/13 07:14:59;;;;;;;22.42;11.50;;;;;;;3.09;96.78;96113.09;5005602;28;20060;-65
2021/01/13 07:17:26;;;;;;;27.75;13.52;;;;;;;3.01;95.88;96117.56;5005811;28;20030;-67
2021/01/13 07:19:53;;;;;;;41.40;18.98;;;;;;;3.32;94.42;96110.66;5007954;28;20083;-68
2021/01/13 07:22:23;;;;;;;39.58;20.00;;;;;;;2.60;93.00;95985.81;5025031;28;20037;-69
2021/01/13 07:24:50;;;;;;;38.30;20.25;;;;;;;0.64;92.66;95653.84;5026556;28;20055;-63
2021/01/13 07:27:16;;;;;;;44.17;23.02;;;;;;;0.92;93.27;95731.06;5025458;28;20033;-71
2021/01/13 07:29:42;;;;;;;46.20;28.20;;;;;;;3.38;92.50;96066.28;5007415;28;20504;-64
2021/01/13 07:32:09;;;;;;;46.33;25.17;;;;;;;3.29;93.14;96073.81;5026184;28;20039;-70
2021/01/13 07:34:52;;;;;;;40.17;19.88;;;;;;;3.59;92.61;96099.72;5007886;28;20038;-63
2021/01/13 07:37:21;;;;;;;65.40;33.45;;;;;;;-6.91;92.64;94472.53;5026373;28;20033;-63
2021/01/13 07:39:59;;;;;;;52.53;25.23;;;;;;;3.60;92.70;96093.09;5026688;28;20052;-62
2021/01/13 07:42:42;;;;;;;68.90;30.88;;;;;;;3.35;94.12;96066.16;4300795;28;20004102;-67
2021/01/13 07:45:19;;;;;;;46.15;24.65;;;;;;;3.48;92.09;96032.91;4993908;28;20030;-68
2021/01/13 07:48:16;;;;;;;45.67;25.10;;;;;;;3.96;91.18;96090.19;5006108;28;20493;-63
2021/01/13 07:50:49;;;;;;;83.40;37.95;;;;;;;3.46;90.97;96046.19;4971934;28;20087;-70
2021/01/13 07:53:29;;;;;;;43.88;21.08;;;;;;;3.64;92.02;96052.91;5005069;28;20088;-69
2021/01/13 07:56:00;;;;;;;33.67;20.30;;;;;;;2.91;90.04;95931.25;5006074;28;20505;-68
2021/01/13 07:58:28;;;;;;;22.52;11.52;;;;;;;3.48;90.67;96011.03;4988848;28;20486;-66
2021/01/13 08:01:15;;;;;;;18.40;10.80;;;;;;;4.09;91.27;96101.84;5006232;28;20037;-68
2021/01/13 08:03:50;;;;;;;14.63;8.13;;;;;;;4.26;89.99;96105.06;4984769;28;20453;-65
2021/01/13 08:06:29;;;;;;;10.40;6.35;;;;;;;4.38;88.94;96104.97;4995521;28;20066;-64
2021/01/13 08:09:11;;;;;;;17.10;8.27;;;;;;;4.40;90.15;96108.16;4988606;28;20040;-65
2021/01/13 08:11:55;;;;;;;13.45;7.30;;;;;;;4.48;87.64;96104.44;4988232;28;20037;-67
2021/01/13 08:14:39;;;;;;;14.32;6.75;;;;;;;4.57;86.39;96107.78;4988201;28;20073;-68
2021/01/13 08:17:54;;;;;;;15.52;8.43;;;;;;;4.78;86.04;96112.19;4986375;28;20379;-68
2021/01/13 08:20:39;;;;;;;17.60;8.70;;;;;;;4.94;84.76;96110.22;4985832;28;20576;-63
2021/01/13 08:23:16;;;;;;;18.98;11.05;;;;;;;4.90;83.58;96084.69;4968916;28;20478;-66
2021/01/13 08:25:55;;;;;;;29.10;16.67;;;;;;;5.11;83.20;96109.84;4996785;28;20112;-66
2021/01/13 08:28:22;;;;;;;27.05;16.77;;;;;;;5.16;81.76;96115.06;5005544;28;20029;-69
2021/01/13 08:30:52;;;;;;;34.80;20.00;;;;;;;3.79;82.20;95879.63;5004604;28;20034;-67
2021/01/13 08:33:23;;;;;;;32.15;20.58;;;;;;;4.81;83.82;96073.06;5005986;28;20405;-69
2021/01/13 08:36:00;;;;;;;29.25;15.75;;;;;;;5.73;82.67;96110.41;5005502;28;20033;-69
2021/01/13 08:38:26;;;;;;;10.63;6.10;;;;;;;5.24;80.90;96004.25;5006008;28;20057;-69
2021/01/13 08:40:52;;;;;;;6.70;3.97;;;;;;;5.88;78.92;96111.53;5002311;28;20048;-67
2021/01/13 08:43:19;;;;;;;10.95;7.82;;;;;;;5.10;81.25;96015.75;5005274;28;20065;-69
2021/01/13 08:45:47;;;;;;;12.52;8.38;;;;;;;5.90;81.86;96073.47;4990060;28;20034;-64
2021/01/13 08:48:21;;;;;;;14.75;8.75;;;;;;;6.47;78.07;96108.28;5004642;28;20044;-70
2021/01/13 08:51:04;;;;;;;16.52;9.02;;;;;;;6.24;78.87;96119.28;5005457;28;20040;-63
2021/01/13 08:53:31;;;;;;;9.98;6.13;;;;;;;6.41;76.30;96118.00;5004103;28;20124;-68
2021/01/13 08:55:57;;;;;;;11.30;7.07;;;;;;;6.41;75.77;96110.56;5005025;28;20489;-68
2021/01/13 08:58:28;;;;;;;8.27;4.85;;;;;;;5.60;75.99;95957.09;4970867;28;20512;-65
2021/01/13 09:01:02;;;;;;;7.10;3.47;;;;;;;6.02;72.58;96029.34;5004998;28;20042;-64
2021/01/13 09:03:27;;;;;;;;;;;;;;;7.02;72.12;96121.41;5004636;28;20030;-67
2021/01/13 09:05:56;;;;;;;3.42;1.60;;;;;;;6.48;72.92;96069.41;5004432;28;19921;-69
2021/01/13 09:08:32;;;;;;;1.60;1.42;;;;;;;6.25;71.23;96038.38;5004682;28;20598;-65
2021/01/13 09:10:57;;;;;;;4.88;2.50;;;;;;;6.17;71.48;96058.66;4985998;28;20553;-69
2021/01/13 09:13:43;;;;;;;2.72;1.95;;;;;;;6.69;72.34;96119.31;5004317;28;20232;-65
2021/01/13 09:16:41;;;;;;;4.20;3.17;;;;;;;6.66;72.17;96119.22;4988547;28;20034;-69
2021/01/13 09:19:09;;;;;;;3.05;1.45;;;;;;;6.65;70.23;96118.47;4975470;28;20507;-72
2021/01/13 09:21:41;;;;;;;6.43;1.70;;;;;;;6.64;71.53;96121.56;5003449;28;20048;-61
2021/01/13 09:24:17;;;;;;;5.80;3.53;;;;;;;6.82;73.44;96123.47;5003624;28;20080;-65
2021/01/13 09:26:50;;;;;;;6.57;3.33;;;;;;;6.69;73.91;96058.75;5003934;28;20444;-65
2021/01/13 09:29:18;;;;;;;5.20;3.05;;;;;;;7.17;72.91;96113.00;5004631;28;20041;-65
2021/01/13 09:32:10;;;;;;;7.28;4.00;;;;;;;6.38;70.32;95943.53;4985425;28;20038;-65
2021/01/13 09:34:36;;;;;;;6.72;3.80;;;;;;;7.56;70.55;96108.81;4986266;28;20501;-65
2021/01/13 09:37:01;;;;;;;7.18;2.97;;;;;;;7.45;72.03;96107.88;5003607;28;20042;-65
2021/01/13 09:39:33;;;;;;;8.77;4.80;;;;;;;7.53;73.61;96104.06;4986197;28;20128;-65
2021/01/13 09:42:00;;;;;;;4.00;2.75;;;;;;;7.44;74.78;96105.50;5003316;28;20107;-64
2021/01/13 09:44:29;;;;;;;8.23;4.05;;;;;;;7.33;75.42;96061.28;4986672;28;20112;-64
2021/01/13 09:46:56;;;;;;;6.25;4.35;;;;;;;7.78;73.81;96114.63;5004398;28;20048;-66
2021/01/13 09:49:21;;;;;;;8.38;5.55;;;;;;;6.22;75.19;95808.19;5004796;28;20026;-65
2021/01/13 09:51:47;;;;;;;7.22;4.85;;;;;;;8.26;74.32;96080.53;5003087;28;20599;-64
2021/01/13 09:54:14;;;;;;;7.25;4.68;;;;;;;7.96;75.13;96057.72;4986282;28;20360;-66
2021/01/13 09:56:39;;;;;;;7.57;5.22;;;;;;;8.36;74.66;96079.84;4986551;28;20041;-66
2021/01/13 09:59:08;;;;;;;7.63;4.25;;;;;;;8.57;73.99;96082.78;5004589;28;20325;-67
2021/01/13 10:01:36;;;;;;;5.20;3.83;;;;;;;8.64;73.39;96088.38;5004334;28;20072;-65
2021/01/13 10:04:09;;;;;;;8.35;5.07;;;;;;;8.52;70.11;96066.59;4987108;28;20073;-64
2021/01/13 10:06:39;;;;;;;14.77;9.45;;;;;;;8.66;65.57;96034.38;5004412;28;20057;-65
2021/01/13 10:09:18;;;;;;;22.83;13.13;;;;;;;8.58;68.21;96070.59;5004616;28;20038;-66
2021/01/13 10:11:44;;;;;;;38.38;16.67;;;;;;;8.29;66.86;96080.56;5004047;28;20420;-65
2021/01/13 10:14:11;;;;;;;8.63;6.07;;;;;;;8.33;67.27;96064.06;5004635;28;20033;-65
2021/01/13 10:16:44;;;;;;;11.75;7.65;;;;;;;8.23;70.32;96026.13;5004100;28;20038;-66
2021/01/13 10:19:11;;;;;;;18.15;11.90;;;;;;;8.05;69.13;96019.59;4986919;28;20033;-65
2021/01/13 10:21:47;;;;;;;24.55;15.32;;;;;;;8.40;70.30;96055.84;4986106;28;20037;-66
2021/01/13 10:24:14;;;;;;;9.65;6.00;;;;;;;8.64;68.62;96074.59;4986449;28;20120;-64
2021/01/13 10:26:45;;;;;;;2.95;2.45;;;;;;;8.06;67.73;95966.81;5003997;28;20048;-65
2021/01/13 10:29:13;;;;;;;46.50;25.80;;;;;;;8.55;65.38;96010.63;5004450;28;20034;-64
2021/01/13 10:31:40;;;;;;;5.43;3.53;;;;;;;9.00;65.93;96026.72;5003939;28;20505;-65
2021/01/13 10:34:06;;;;;;;8.52;4.93;;;;;;;9.10;65.83;96042.59;5004425;28;20042;-64
2021/01/13 10:36:39;;;;;;;10.77;5.55;;;;;;;9.11;64.15;96041.41;5003860;28;20175;-64
2021/01/13 10:39:18;;;;;;;7.50;5.15;;;;;;;9.29;64.78;96049.81;5004008;28;20559;-64
2021/01/13 10:41:52;;;;;;;7.88;5.25;;;;;;;8.74;63.25;95952.41;5003030;28;20121;-64
2021/01/13 10:44:21;;;;;;;11.50;8.63;;;;;;;9.40;66.41;96045.13;4984607;28;20033;-64
2021/01/13 10:46:48;;;;;;;5.30;4.05;;;;;;;9.59;59.98;96042.06;5003833;28;20096;-64
2021/01/13 10:49:26;;;;;;;4.53;3.13;;;;;;;8.84;59.04;95919.34;5004151;28;20052;-66
2021/01/13 10:51:54;;;;;;;3.45;2.42;;;;;;;9.48;59.47;96022.69;5004070;28;20535;-65
2021/01/13 10:54:22;;;;;;;5.75;3.10;;;;;;;9.64;61.19;96017.59;5004141;28;20059;-66
2021/01/13 10:56:53;;;;;;;3.20;2.10;;;;;;;9.30;57.34;95952.72;5003517;28;20046;-64
2021/01/13 10:59:19;;;;;;;3.08;2.50;;;;;;;8.76;59.29;95872.75;5004162;28;20076;-64
2021/01/13 11:01:58;;;;;;;4.85;3.25;;;;;;;9.86;61.43;96035.06;5003632;28;20121;-65
2021/01/13 11:04:31;;;;;;;4.53;2.60;;;;;;;9.76;59.90;96031.09;5007389;28;20501;-65
2021/01/13 11:07:03;;;;;;;5.93;4.30;;;;;;;9.53;59.51;95996.63;4988669;28;20044;-65
2021/01/13 11:09:29;;;;;;;13.32;11.52;;;;;;;9.63;59.69;96029.84;5007002;28;20375;-63
2021/01/13 11:11:56;;;;;;;3.72;3.28;;;;;;;9.78;61.45;96028.72;5007114;28;20069;-64
2021/01/13 11:14:31;;;;;;;9.13;6.00;;;;;;;9.92;61.52;96023.25;5007445;28;20033;-64
2021/01/13 11:17:03;;;;;;;6.88;4.75;;;;;;;9.74;58.89;96029.88;5006598;28;20540;-64
2021/01/13 11:19:29;;;;;;;28.55;9.23;;;;;;;9.71;57.54;96023.16;4989328;28;20046;-64
2021/01/13 11:21:56;;;;;;;20.33;8.32;;;;;;;9.42;59.99;96046.31;5006952;28;20100;-64
2021/01/13 11:24:46;;;;;;;13.43;5.97;;;;;;;9.36;57.90;96031.28;5007057;28;20029;-64
2021/01/13 11:27:14;;;;;;;20.77;9.32;;;;;;;9.12;60.68;96040.22;5006885;28;20045;-65
2021/01/13 11:29:43;;;;;;;17.50;10.52;;;;;;;9.24;58.97;96048.19;5007123;28;20041;-64
2021/01/13 11:32:13;;;;;;;14.23;8.43;;;;;;;9.53;60.39;96033.34;5006763;28;20129;-64
2021/01/13 11:34:39;;;;;;;11.63;4.47;;;;;;;9.74;58.32;96025.13;4988702;28;20394;-64
2021/01/13 11:37:10;;;;;;;8.50;2.72;;;;;;;9.77;58.56;96021.59;5006761;28;20418;-64
2021/01/13 11:40:11;;;;;;;6.35;2.70;;;;;;;9.47;59.56;96029.38;5006790;28;20034;-65
2021/01/13 11:42:56;;;;;;;10.98;7.68;;;;;;;9.36;59.52;96022.22;5006682;28;20034;-64
2021/01/13 11:45:28;;;;;;;9.90;5.53;;;;;;;9.35;58.70;96026.94;5006691;28;20029;-63
2021/01/13 11:47:55;;;;;;;4.85;1.80;;;;;;;8.99;59.69;95980.97;5007238;28;20469;-64
2021/01/13 11:50:22;;;;;;;2.83;1.63;;;;;;;9.16;59.70;96021.72;5006257;28;20042;-65
2021/01/13 11:52:53;;;;;;;7.47;3.33;;;;;;;9.19;62.02;96029.22;4989128;28;20493;-64